sensor_id;sensor_type;location;lat;lon;timestamp;P1;durP1;ratioP1;P2;durP2;ratioP2
5638;SDS011;2841;44.526;11.360;2023-06-22T10:51:15;9.87;;;6.90;;
5638;SDS011;2841;44.526;11.360;2023-06-22T10:53:43;9.00;;;5.50;;
5638;SDS011;2841;44.526;11.360;2023-06-22T10:56:10;12.27;;;5.73;;
5638;SDS011;2841;44.526;11.360;2023-06-22T10:58:38;8.53;;;5.50;;
5638;SDS011;2841;44.526;11.360;2023-06-22T11:01:05;8.13;;;5.80;;
5638;SDS011;2841;44.526;11.360;2023-06-22T11:03:32;7.47;;;4.97;;
5638;SDS011;2841;44.526;11.360;2023-06-22T11:06:02;14.03;;;5.87;;
5638;SDS011;2841;44.526;11.360;2023-06-22T11:08:32;12.50;;;7.10;;
5638;SDS011;2841;44.526;11.360;2023-06-22T11:11:01;8.87;;;5.57;;
5638;SDS011;2841;44.526;11.360;2023-06-22T11:13:28;12.40;;;6.57;;
5638;SDS011;2841;44.526;11.360;2023-06-22T11:15:55;12.53;;;5.33;;
5638;SDS011;2841;44.526;11.360;2023-06-22T11:18:22;12.20;;;5.80;;
5638;SDS011;2841;44.526;11.360;2023-06-22T11:20:49;12.33;;;5.67;;
5638;SDS011;2841;44.526;11.360;2023-06-22T11:23:16;7.33;;;5.47;;
5638;SDS011;2841;44.526;11.360;2023-06-22T11:25:45;8.50;;;5.70;;
5638;SDS011;2841;44.526;11.360;2023-06-22T11:28:13;11.03;;;6.60;;
5638;SDS011;2841;44.526;11.360;2023-06-22T11:30:40;17.27;;;6.37;;
5638;SDS011;2841;44.526;11.360;2023-06-22T11:33:07;8.60;;;5.60;;
5638;SDS011;2841;44.526;11.360;2023-06-22T11:35:34;12.80;;;5.70;;
5638;SDS011;2841;44.526;11.360;2023-06-22T11:38:01;8.53;;;5.27;;
5638;SDS011;2841;44.526;11.360;2023-06-22T11:40:29;12.83;;;5.37;;
5638;SDS011;2841;44.526;11.360;2023-06-22T11:42:57;16.93;;;6.07;;
5638;SDS011;2841;44.526;11.360;2023-06-22T11:45:24;13.00;;;5.30;;
5638;SDS011;2841;44.526;11.360;2023-06-22T11:47:52;9.37;;;5.20;;
5638;SDS011;2841;44.526;11.360;2023-06-22T11:50:18;11.13;;;4.90;;
5638;SDS011;2841;44.526;11.360;2023-06-22T11:52:46;10.47;;;6.10;;
5638;SDS011;2841;44.526;11.360;2023-06-22T11:55:13;12.13;;;4.90;;
5638;SDS011;2841;44.526;11.360;2023-06-22T11:57:52;14.13;;;5.20;;
5638;SDS011;2841;44.526;11.360;2023-06-22T12:00:22;8.77;;;4.70;;
5638;SDS011;2841;44.526;11.360;2023-06-22T12:02:49;7.37;;;4.40;;
5638;SDS011;2841;44.526;11.360;2023-06-22T12:05:17;9.90;;;4.97;;
5638;SDS011;2841;44.526;11.360;2023-06-22T12:07:45;15.03;;;4.67;;
5638;SDS011;2841;44.526;11.360;2023-06-22T12:10:12;15.90;;;5.20;;
5638;SDS011;2841;44.526;11.360;2023-06-22T12:12:39;11.50;;;4.57;;
5638;SDS011;2841;44.526;11.360;2023-06-22T12:15:07;10.37;;;4.93;;
5638;SDS011;2841;44.526;11.360;2023-06-22T12:17:37;32.27;;;6.90;;
5638;SDS011;2841;44.526;11.360;2023-06-22T12:20:05;8.27;;;4.57;;
5638;SDS011;2841;44.526;11.360;2023-06-22T12:22:34;11.30;;;4.10;;
5638;SDS011;2841;44.526;11.360;2023-06-22T12:25:03;14.43;;;4.33;;
5638;SDS011;2841;44.526;11.360;2023-06-22T12:27:30;7.57;;;4.30;;
5638;SDS011;2841;44.526;11.360;2023-06-22T12:29:57;9.50;;;4.67;;
5638;SDS011;2841;44.526;11.360;2023-06-22T12:32:24;8.70;;;4.40;;
5638;SDS011;2841;44.526;11.360;2023-06-22T12:34:53;8.30;;;3.70;;
5638;SDS011;2841;44.526;11.360;2023-06-22T12:37:20;9.50;;;4.73;;
5638;SDS011;2841;44.526;11.360;2023-06-22T12:39:47;15.47;;;4.13;;
5638;SDS011;2841;44.526;11.360;2023-06-22T12:42:15;7.63;;;4.73;;
5638;SDS011;2841;44.526;11.360;2023-06-22T12:44:43;6.83;;;3.87;;
5638;SDS011;2841;44.526;11.360;2023-06-22T12:47:10;21.60;;;4.93;;
5638;SDS011;2841;44.526;11.360;2023-06-22T12:49:38;11.33;;;4.37;;
5638;SDS011;2841;44.526;11.360;2023-06-22T12:52:09;6.60;;;3.97;;
5638;SDS011;2841;44.526;11.360;2023-06-22T12:54:37;13.93;;;4.70;;
5638;SDS011;2841;44.526;11.360;2023-06-22T12:57:04;14.93;;;4.00;;
5638;SDS011;2841;44.526;11.360;2023-06-22T12:59:32;5.90;;;4.00;;
5638;SDS011;2841;44.526;11.360;2023-06-22T13:01:59;14.03;;;3.87;;
5638;SDS011;2841;44.526;11.360;2023-06-22T13:04:26;6.57;;;3.33;;
5638;SDS011;2841;44.526;11.360;2023-06-22T13:06:53;8.83;;;3.27;;
5638;SDS011;2841;44.526;11.360;2023-06-22T13:09:22;6.73;;;3.50;;
5638;SDS011;2841;44.526;11.360;2023-06-22T13:11:50;7.13;;;3.90;;
5638;SDS011;2841;44.526;11.360;2023-06-22T13:14:17;7.10;;;4.07;;
5638;SDS011;2841;44.526;11.360;2023-06-22T13:16:44;10.40;;;3.37;;
5638;SDS011;2841;44.526;11.360;2023-06-22T13:19:12;4.83;;;3.37;;
5638;SDS011;2841;44.526;11.360;2023-06-22T13:21:39;9.13;;;3.50;;
5638;SDS011;2841;44.526;11.360;2023-06-22T13:24:06;11.77;;;3.63;;
5638;SDS011;2841;44.526;11.360;2023-06-22T13:26:35;6.33;;;3.60;;
5638;SDS011;2841;44.526;11.360;2023-06-22T13:29:02;5.10;;;3.30;;
5638;SDS011;2841;44.526;11.360;2023-06-22T13:31:29;9.10;;;3.80;;
5638;SDS011;2841;44.526;11.360;2023-06-22T13:33:57;11.20;;;3.37;;
5638;SDS011;2841;44.526;11.360;2023-06-22T13:36:27;7.40;;;3.40;;
5638;SDS011;2841;44.526;11.360;2023-06-22T13:38:55;6.53;;;3.20;;
5638;SDS011;2841;44.526;11.360;2023-06-22T13:41:22;6.70;;;3.43;;
5638;SDS011;2841;44.526;11.360;2023-06-22T13:43:51;19.03;;;3.23;;
5638;SDS011;2841;44.526;11.360;2023-06-22T13:46:18;6.30;;;3.17;;
5638;SDS011;2841;44.526;11.360;2023-06-22T13:48:46;16.40;;;2.93;;
5638;SDS011;2841;44.526;11.360;2023-06-22T13:51:13;6.50;;;3.30;;
5638;SDS011;2841;44.526;11.360;2023-06-22T13:53:42;10.00;;;3.30;;
5638;SDS011;2841;44.526;11.360;2023-06-22T13:56:09;5.90;;;3.07;;
5638;SDS011;2841;44.526;11.360;2023-06-22T13:58:36;15.03;;;4.23;;
5638;SDS011;2841;44.526;11.360;2023-06-22T14:01:04;8.80;;;3.33;;
5638;SDS011;2841;44.526;11.360;2023-06-22T14:03:32;10.13;;;3.43;;
5638;SDS011;2841;44.526;11.360;2023-06-22T14:05:59;24.60;;;4.33;;
5638;SDS011;2841;44.526;11.360;2023-06-22T14:08:27;6.17;;;3.23;;
5638;SDS011;2841;44.526;11.360;2023-06-22T14:10:54;13.97;;;3.63;;
5638;SDS011;2841;44.526;11.360;2023-06-22T14:13:22;6.40;;;3.23;;
5638;SDS011;2841;44.526;11.360;2023-06-22T14:15:49;10.07;;;3.30;;
5638;SDS011;2841;44.526;11.360;2023-06-22T14:18:18;8.67;;;3.77;;
5638;SDS011;2841;44.526;11.360;2023-06-22T14:20:48;10.27;;;3.73;;
5638;SDS011;2841;44.526;11.360;2023-06-22T14:23:16;12.00;;;3.60;;
5638;SDS011;2841;44.526;11.360;2023-06-22T14:25:44;5.27;;;3.37;;
5638;SDS011;2841;44.526;11.360;2023-06-22T14:28:12;19.47;;;4.30;;
5638;SDS011;2841;44.526;11.360;2023-06-22T14:30:40;13.60;;;3.63;;
5638;SDS011;2841;44.526;11.360;2023-06-22T14:33:11;5.57;;;3.47;;
5638;SDS011;2841;44.526;11.360;2023-06-22T14:35:41;10.70;;;4.10;;
5638;SDS011;2841;44.526;11.360;2023-06-22T14:38:08;9.33;;;3.67;;
5638;SDS011;2841;44.526;11.360;2023-06-22T14:40:36;13.83;;;3.73;;
5638;SDS011;2841;44.526;11.360;2023-06-22T14:43:04;21.23;;;4.73;;
5638;SDS011;2841;44.526;11.360;2023-06-22T14:45:31;13.17;;;4.53;;
5638;SDS011;2841;44.526;11.360;2023-06-22T14:47:59;14.30;;;4.90;;
5638;SDS011;2841;44.526;11.360;2023-06-22T14:50:26;8.17;;;4.40;;
5638;SDS011;2841;44.526;11.360;2023-06-22T14:52:55;15.50;;;4.10;;
5638;SDS011;2841;44.526;11.360;2023-06-22T14:55:23;12.40;;;5.00;;
5638;SDS011;2841;44.526;11.360;2023-06-22T14:57:50;15.37;;;3.93;;
5638;SDS011;2841;44.526;11.360;2023-06-22T15:00:18;7.00;;;4.33;;
5638;SDS011;2841;44.526;11.360;2023-06-22T15:02:46;10.73;;;4.30;;
5638;SDS011;2841;44.526;11.360;2023-06-22T15:05:16;24.20;;;4.70;;
5638;SDS011;2841;44.526;11.360;2023-06-22T15:07:49;11.90;;;4.40;;
5638;SDS011;2841;44.526;11.360;2023-06-22T15:10:18;7.10;;;3.90;;
5638;SDS011;2841;44.526;11.360;2023-06-22T15:12:46;17.43;;;5.13;;
5638;SDS011;2841;44.526;11.360;2023-06-22T15:15:13;12.33;;;4.73;;
5638;SDS011;2841;44.526;11.360;2023-06-22T15:17:43;8.97;;;3.60;;
5638;SDS011;2841;44.526;11.360;2023-06-22T15:20:15;8.63;;;4.20;;
5638;SDS011;2841;44.526;11.360;2023-06-22T15:22:42;10.13;;;5.53;;
5638;SDS011;2841;44.526;11.360;2023-06-22T15:25:13;16.33;;;4.67;;
5638;SDS011;2841;44.526;11.360;2023-06-22T15:27:41;5.87;;;4.00;;
5638;SDS011;2841;44.526;11.360;2023-06-22T15:30:09;17.67;;;4.77;;
5638;SDS011;2841;44.526;11.360;2023-06-22T15:32:37;14.37;;;4.67;;
5638;SDS011;2841;44.526;11.360;2023-06-22T15:35:05;16.17;;;5.00;;
5638;SDS011;2841;44.526;11.360;2023-06-22T15:37:33;15.20;;;3.70;;
5638;SDS011;2841;44.526;11.360;2023-06-22T15:40:00;13.70;;;3.77;;
5638;SDS011;2841;44.526;11.360;2023-06-22T15:42:28;16.77;;;4.50;;
5638;SDS011;2841;44.526;11.360;2023-06-22T15:44:56;18.67;;;4.10;;
5638;SDS011;2841;44.526;11.360;2023-06-22T15:47:23;13.10;;;4.37;;
5638;SDS011;2841;44.526;11.360;2023-06-22T15:49:50;13.80;;;4.17;;
5638;SDS011;2841;44.526;11.360;2023-06-22T15:52:17;19.30;;;5.50;;
5638;SDS011;2841;44.526;11.360;2023-06-22T15:54:44;20.37;;;5.10;;
5638;SDS011;2841;44.526;11.360;2023-06-22T15:57:12;22.23;;;3.87;;
5638;SDS011;2841;44.526;11.360;2023-06-22T15:59:39;13.80;;;4.57;;
5638;SDS011;2841;44.526;11.360;2023-06-22T16:02:07;8.40;;;4.23;;
5638;SDS011;2841;44.526;11.360;2023-06-22T16:04:35;11.13;;;4.17;;
5638;SDS011;2841;44.526;11.360;2023-06-22T16:07:02;14.30;;;4.60;;
5638;SDS011;2841;44.526;11.360;2023-06-22T16:09:30;9.43;;;4.30;;
5638;SDS011;2841;44.526;11.360;2023-06-22T16:11:58;18.67;;;5.00;;
5638;SDS011;2841;44.526;11.360;2023-06-22T16:14:25;23.50;;;4.60;;
5638;SDS011;2841;44.526;11.360;2023-06-22T16:16:52;14.67;;;4.10;;
5638;SDS011;2841;44.526;11.360;2023-06-22T16:19:20;10.63;;;4.47;;
5638;SDS011;2841;44.526;11.360;2023-06-22T16:21:47;18.70;;;5.83;;
5638;SDS011;2841;44.526;11.360;2023-06-22T16:24:14;8.87;;;3.90;;
5638;SDS011;2841;44.526;11.360;2023-06-22T16:26:42;12.37;;;4.27;;
5638;SDS011;2841;44.526;11.360;2023-06-22T16:29:12;11.60;;;4.90;;
5638;SDS011;2841;44.526;11.360;2023-06-22T16:31:39;16.30;;;5.03;;
5638;SDS011;2841;44.526;11.360;2023-06-22T16:34:06;15.53;;;5.10;;
5638;SDS011;2841;44.526;11.360;2023-06-22T16:36:34;20.53;;;5.03;;
5638;SDS011;2841;44.526;11.360;2023-06-22T16:39:01;11.47;;;4.90;;
5638;SDS011;2841;44.526;11.360;2023-06-22T16:41:30;16.17;;;5.23;;
5638;SDS011;2841;44.526;11.360;2023-06-22T16:43:57;16.70;;;4.60;;
5638;SDS011;2841;44.526;11.360;2023-06-22T16:46:29;8.53;;;3.80;;
5638;SDS011;2841;44.526;11.360;2023-06-22T16:48:57;15.10;;;5.90;;
5638;SDS011;2841;44.526;11.360;2023-06-22T16:51:25;14.40;;;5.47;;
5638;SDS011;2841;44.526;11.360;2023-06-22T16:53:54;12.40;;;5.77;;
5638;SDS011;2841;44.526;11.360;2023-06-22T16:56:23;13.40;;;5.87;;
5638;SDS011;2841;44.526;11.360;2023-06-22T16:58:51;13.43;;;5.83;;
5638;SDS011;2841;44.526;11.360;2023-06-22T17:01:20;9.33;;;5.50;;
5638;SDS011;2841;44.526;11.360;2023-06-22T17:03:52;17.37;;;6.03;;
5638;SDS011;2841;44.526;11.360;2023-06-22T17:06:33;14.17;;;6.20;;
5638;SDS011;2841;44.526;11.360;2023-06-22T17:09:02;15.47;;;5.97;;
5638;SDS011;2841;44.526;11.360;2023-06-22T17:11:30;15.40;;;5.77;;
5638;SDS011;2841;44.526;11.360;2023-06-22T17:13:58;21.47;;;7.03;;
5638;SDS011;2841;44.526;11.360;2023-06-22T17:16:26;15.03;;;6.10;;
5638;SDS011;2841;44.526;11.360;2023-06-22T17:18:57;17.00;;;6.87;;
5638;SDS011;2841;44.526;11.360;2023-06-22T17:21:28;19.23;;;7.10;;
5638;SDS011;2841;44.526;11.360;2023-06-22T17:23:58;22.37;;;6.40;;
5638;SDS011;2841;44.526;11.360;2023-06-22T17:26:28;16.80;;;6.40;;
5638;SDS011;2841;44.526;11.360;2023-06-22T17:28:56;26.57;;;5.80;;
5638;SDS011;2841;44.526;11.360;2023-06-22T17:31:26;14.30;;;6.80;;
5638;SDS011;2841;44.526;11.360;2023-06-22T17:34:06;19.37;;;6.90;;
5638;SDS011;2841;44.526;11.360;2023-06-22T17:36:39;11.93;;;6.80;;
5638;SDS011;2841;44.526;11.360;2023-06-22T17:39:10;23.03;;;7.60;;
5638;SDS011;2841;44.526;11.360;2023-06-22T17:41:39;16.07;;;6.10;;
5638;SDS011;2841;44.526;11.360;2023-06-22T17:44:11;12.17;;;6.53;;
5638;SDS011;2841;44.526;11.360;2023-06-22T17:46:39;13.10;;;6.30;;
5638;SDS011;2841;44.526;11.360;2023-06-22T17:49:08;22.30;;;6.80;;
5638;SDS011;2841;44.526;11.360;2023-06-22T17:51:38;19.63;;;6.90;;
5638;SDS011;2841;44.526;11.360;2023-06-22T17:54:06;16.03;;;6.27;;
5638;SDS011;2841;44.526;11.360;2023-06-22T17:56:34;16.70;;;7.00;;
5638;SDS011;2841;44.526;11.360;2023-06-22T17:59:02;19.27;;;6.93;;
5638;SDS011;2841;44.526;11.360;2023-06-22T18:01:30;13.40;;;6.37;;
5638;SDS011;2841;44.526;11.360;2023-06-22T18:04:00;15.30;;;7.77;;
5638;SDS011;2841;44.526;11.360;2023-06-22T18:06:31;21.03;;;7.90;;
5638;SDS011;2841;44.526;11.360;2023-06-22T18:09:01;20.47;;;6.73;;
5638;SDS011;2841;44.526;11.360;2023-06-22T18:11:33;20.03;;;6.70;;
5638;SDS011;2841;44.526;11.360;2023-06-22T18:14:06;15.77;;;6.93;;
5638;SDS011;2841;44.526;11.360;2023-06-22T18:16:34;17.27;;;7.23;;
5638;SDS011;2841;44.526;11.360;2023-06-22T18:19:01;24.10;;;7.00;;
5638;SDS011;2841;44.526;11.360;2023-06-22T18:21:29;14.17;;;6.17;;
5638;SDS011;2841;44.526;11.360;2023-06-22T18:23:57;19.60;;;6.80;;
5638;SDS011;2841;44.526;11.360;2023-06-22T18:26:24;36.93;;;8.30;;
5638;SDS011;2841;44.526;11.360;2023-06-22T18:28:54;23.60;;;7.67;;
5638;SDS011;2841;44.526;11.360;2023-06-22T18:31:23;17.90;;;6.67;;
5638;SDS011;2841;44.526;11.360;2023-06-22T18:33:51;15.37;;;7.00;;
5638;SDS011;2841;44.526;11.360;2023-06-22T18:36:21;72.27;;;11.67;;
5638;SDS011;2841;44.526;11.360;2023-06-22T18:38:51;61.23;;;11.07;;
5638;SDS011;2841;44.526;11.360;2023-06-22T18:41:22;24.33;;;9.13;;
5638;SDS011;2841;44.526;11.360;2023-06-22T18:43:54;26.50;;;9.27;;
5638;SDS011;2841;44.526;11.360;2023-06-22T18:46:31;14.13;;;7.80;;
5638;SDS011;2841;44.526;11.360;2023-06-22T18:48:59;24.73;;;8.30;;
5638;SDS011;2841;44.526;11.360;2023-06-22T18:54:30;21.70;;;8.60;;
5638;SDS011;2841;44.526;11.360;2023-06-22T18:57:00;15.73;;;7.63;;
5638;SDS011;2841;44.526;11.360;2023-06-22T18:59:43;13.33;;;7.90;;
5638;SDS011;2841;44.526;11.360;2023-06-22T19:02:12;23.87;;;9.00;;
5638;SDS011;2841;44.526;11.360;2023-06-22T19:04:41;22.83;;;7.90;;
5638;SDS011;2841;44.526;11.360;2023-06-22T19:07:09;32.07;;;8.50;;
5638;SDS011;2841;44.526;11.360;2023-06-22T19:09:37;15.97;;;7.40;;
5638;SDS011;2841;44.526;11.360;2023-06-22T19:12:17;18.67;;;8.77;;
5638;SDS011;2841;44.526;11.360;2023-06-22T19:17:41;19.47;;;7.23;;
5638;SDS011;2841;44.526;11.360;2023-06-22T19:20:10;14.83;;;6.97;;
5638;SDS011;2841;44.526;11.360;2023-06-22T19:22:49;21.73;;;7.10;;
5638;SDS011;2841;44.526;11.360;2023-06-22T19:25:20;14.40;;;6.63;;
5638;SDS011;2841;44.526;11.360;2023-06-22T19:27:49;17.63;;;7.77;;
5638;SDS011;2841;44.526;11.360;2023-06-22T19:30:19;19.93;;;5.90;;
5638;SDS011;2841;44.526;11.360;2023-06-22T19:32:47;14.43;;;5.50;;
5638;SDS011;2841;44.526;11.360;2023-06-22T19:35:15;20.90;;;7.10;;
5638;SDS011;2841;44.526;11.360;2023-06-22T19:37:44;17.40;;;5.80;;
5638;SDS011;2841;44.526;11.360;2023-06-22T19:40:12;14.83;;;4.70;;
5638;SDS011;2841;44.526;11.360;2023-06-22T19:42:40;15.40;;;4.60;;
5638;SDS011;2841;44.526;11.360;2023-06-22T19:45:08;16.43;;;4.83;;
5638;SDS011;2841;44.526;11.360;2023-06-22T19:47:44;16.00;;;4.67;;
5638;SDS011;2841;44.526;11.360;2023-06-22T19:50:11;12.43;;;4.77;;
5638;SDS011;2841;44.526;11.360;2023-06-22T19:52:39;11.03;;;4.80;;
5638;SDS011;2841;44.526;11.360;2023-06-22T19:55:07;16.90;;;6.10;;
5638;SDS011;2841;44.526;11.360;2023-06-22T19:57:39;13.17;;;5.00;;
5638;SDS011;2841;44.526;11.360;2023-06-22T20:00:10;13.60;;;4.73;;
5638;SDS011;2841;44.526;11.360;2023-06-22T20:02:42;20.53;;;5.70;;
5638;SDS011;2841;44.526;11.360;2023-06-22T20:05:11;15.33;;;5.50;;
5638;SDS011;2841;44.526;11.360;2023-06-22T20:07:39;17.00;;;5.30;;
5638;SDS011;2841;44.526;11.360;2023-06-22T20:10:11;16.27;;;4.63;;
5638;SDS011;2841;44.526;11.360;2023-06-22T20:12:39;19.90;;;4.50;;
5638;SDS011;2841;44.526;11.360;2023-06-22T20:15:13;9.30;;;4.07;;
5638;SDS011;2841;44.526;11.360;2023-06-22T20:17:59;8.60;;;5.17;;
5638;SDS011;2841;44.526;11.360;2023-06-22T20:20:29;26.27;;;4.47;;
5638;SDS011;2841;44.526;11.360;2023-06-22T20:22:59;8.73;;;4.83;;
5638;SDS011;2841;44.526;11.360;2023-06-22T20:25:29;14.43;;;4.40;;
5638;SDS011;2841;44.526;11.360;2023-06-22T20:28:03;20.13;;;3.70;;
5638;SDS011;2841;44.526;11.360;2023-06-22T20:30:31;12.20;;;3.90;;
5638;SDS011;2841;44.526;11.360;2023-06-22T20:33:00;9.03;;;3.70;;
5638;SDS011;2841;44.526;11.360;2023-06-22T20:35:30;13.03;;;4.00;;
5638;SDS011;2841;44.526;11.360;2023-06-22T20:37:58;11.10;;;3.70;;
5638;SDS011;2841;44.526;11.360;2023-06-22T20:40:26;9.67;;;3.67;;
5638;SDS011;2841;44.526;11.360;2023-06-22T20:42:54;11.53;;;3.63;;
5638;SDS011;2841;44.526;11.360;2023-06-22T20:45:22;14.73;;;3.80;;
5638;SDS011;2841;44.526;11.360;2023-06-22T20:47:50;10.73;;;3.47;;
5638;SDS011;2841;44.526;11.360;2023-06-22T20:50:20;14.17;;;4.07;;
5638;SDS011;2841;44.526;11.360;2023-06-22T20:52:47;7.27;;;3.07;;
5638;SDS011;2841;44.526;11.360;2023-06-22T20:55:16;10.23;;;4.30;;
5638;SDS011;2841;44.526;11.360;2023-06-22T20:57:43;5.73;;;3.13;;
5638;SDS011;2841;44.526;11.360;2023-06-22T21:00:11;10.00;;;4.00;;
5638;SDS011;2841;44.526;11.360;2023-06-22T21:02:39;12.33;;;5.47;;
5638;SDS011;2841;44.526;11.360;2023-06-22T21:05:08;12.53;;;4.60;;
5638;SDS011;2841;44.526;11.360;2023-06-22T21:07:37;14.90;;;4.43;;
5638;SDS011;2841;44.526;11.360;2023-06-22T21:10:05;7.27;;;4.20;;
5638;SDS011;2841;44.526;11.360;2023-06-22T21:12:33;4.80;;;3.47;;
5638;SDS011;2841;44.526;11.360;2023-06-22T21:15:00;10.60;;;3.27;;
5638;SDS011;2841;44.526;11.360;2023-06-22T21:17:29;15.80;;;4.37;;
5638;SDS011;2841;44.526;11.360;2023-06-22T21:19:56;18.10;;;4.63;;
5638;SDS011;2841;44.526;11.360;2023-06-22T21:22:24;13.80;;;3.73;;
5638;SDS011;2841;44.526;11.360;2023-06-22T21:25:03;14.50;;;4.77;;
5638;SDS011;2841;44.526;11.360;2023-06-22T21:27:32;10.43;;;3.30;;
5638;SDS011;2841;44.526;11.360;2023-06-22T21:29:59;10.10;;;3.90;;
5638;SDS011;2841;44.526;11.360;2023-06-22T21:32:27;12.33;;;3.43;;
5638;SDS011;2841;44.526;11.360;2023-06-22T21:34:54;18.30;;;3.47;;
5638;SDS011;2841;44.526;11.360;2023-06-22T21:37:21;10.67;;;3.80;;
5638;SDS011;2841;44.526;11.360;2023-06-22T21:39:48;10.97;;;3.10;;
5638;SDS011;2841;44.526;11.360;2023-06-22T21:42:17;7.67;;;2.87;;
5638;SDS011;2841;44.526;11.360;2023-06-22T21:44:46;9.80;;;3.20;;
5638;SDS011;2841;44.526;11.360;2023-06-22T21:47:14;20.40;;;3.27;;
5638;SDS011;2841;44.526;11.360;2023-06-22T21:49:41;9.30;;;3.20;;
5638;SDS011;2841;44.526;11.360;2023-06-22T21:52:08;16.63;;;2.93;;
5638;SDS011;2841;44.526;11.360;2023-06-22T21:54:36;12.40;;;3.40;;
5638;SDS011;2841;44.526;11.360;2023-06-22T21:57:04;9.20;;;2.90;;
5638;SDS011;2841;44.526;11.360;2023-06-22T21:59:32;8.33;;;3.30;;
5638;SDS011;2841;44.526;11.360;2023-06-22T22:01:59;9.20;;;3.13;;
5638;SDS011;2841;44.526;11.360;2023-06-22T22:04:27;10.87;;;3.63;;
5638;SDS011;2841;44.526;11.360;2023-06-22T22:06:54;6.90;;;3.50;;
5638;SDS011;2841;44.526;11.360;2023-06-22T22:09:21;7.70;;;2.67;;
5638;SDS011;2841;44.526;11.360;2023-06-22T22:11:48;11.70;;;3.33;;
5638;SDS011;2841;44.526;11.360;2023-06-22T22:14:15;15.60;;;3.13;;
5638;SDS011;2841;44.526;11.360;2023-06-22T22:16:44;24.70;;;3.70;;
5638;SDS011;2841;44.526;11.360;2023-06-22T22:19:11;8.93;;;4.03;;
5638;SDS011;2841;44.526;11.360;2023-06-22T22:21:39;9.40;;;3.47;;
5638;SDS011;2841;44.526;11.360;2023-06-22T22:24:07;8.00;;;4.03;;
5638;SDS011;2841;44.526;11.360;2023-06-22T22:26:34;8.53;;;3.50;;
5638;SDS011;2841;44.526;11.360;2023-06-22T22:29:02;8.23;;;3.77;;
5638;SDS011;2841;44.526;11.360;2023-06-22T22:31:29;5.63;;;3.33;;
5638;SDS011;2841;44.526;11.360;2023-06-22T22:34:03;13.20;;;3.30;;
5638;SDS011;2841;44.526;11.360;2023-06-22T22:36:31;8.63;;;2.77;;
5638;SDS011;2841;44.526;11.360;2023-06-22T22:38:58;13.00;;;3.40;;
5638;SDS011;2841;44.526;11.360;2023-06-22T22:41:25;10.50;;;3.63;;
5638;SDS011;2841;44.526;11.360;2023-06-22T22:43:53;9.93;;;3.30;;
5638;SDS011;2841;44.526;11.360;2023-06-22T22:46:20;9.40;;;3.13;;
5638;SDS011;2841;44.526;11.360;2023-06-22T22:48:47;13.23;;;3.40;;
5638;SDS011;2841;44.526;11.360;2023-06-22T22:51:16;11.17;;;5.10;;
5638;SDS011;2841;44.526;11.360;2023-06-22T22:53:43;9.60;;;3.70;;
5638;SDS011;2841;44.526;11.360;2023-06-22T22:56:10;7.93;;;2.97;;
5638;SDS011;2841;44.526;11.360;2023-06-22T22:58:38;15.23;;;3.00;;
5638;SDS011;2841;44.526;11.360;2023-06-22T23:01:05;15.20;;;3.97;;
5638;SDS011;2841;44.526;11.360;2023-06-22T23:03:32;8.33;;;3.00;;
5638;SDS011;2841;44.526;11.360;2023-06-22T23:05:59;6.70;;;3.53;;
5638;SDS011;2841;44.526;11.360;2023-06-22T23:08:28;11.67;;;3.40;;
5638;SDS011;2841;44.526;11.360;2023-06-22T23:10:55;5.63;;;3.00;;
5638;SDS011;2841;44.526;11.360;2023-06-22T23:13:22;6.83;;;2.90;;
5638;SDS011;2841;44.526;11.360;2023-06-22T23:15:49;6.50;;;2.83;;
5638;SDS011;2841;44.526;11.360;2023-06-22T23:18:17;12.37;;;3.10;;
5638;SDS011;2841;44.526;11.360;2023-06-22T23:20:44;8.50;;;2.93;;
5638;SDS011;2841;44.526;11.360;2023-06-22T23:23:11;11.90;;;3.33;;
5638;SDS011;2841;44.526;11.360;2023-06-22T23:25:39;9.17;;;3.50;;
5638;SDS011;2841;44.526;11.360;2023-06-22T23:28:07;11.70;;;2.70;;
5638;SDS011;2841;44.526;11.360;2023-06-22T23:30:36;6.73;;;2.90;;
5638;SDS011;2841;44.526;11.360;2023-06-22T23:33:04;7.63;;;3.03;;
5638;SDS011;2841;44.526;11.360;2023-06-22T23:35:31;7.53;;;4.00;;
5638;SDS011;2841;44.526;11.360;2023-06-22T23:37:59;9.20;;;3.60;;
5638;SDS011;2841;44.526;11.360;2023-06-22T23:40:26;16.47;;;3.30;;
5638;SDS011;2841;44.526;11.360;2023-06-22T23:42:54;10.33;;;3.77;;
5638;SDS011;2841;44.526;11.360;2023-06-22T23:45:21;5.47;;;3.20;;
5638;SDS011;2841;44.526;11.360;2023-06-22T23:47:49;7.77;;;3.13;;
5638;SDS011;2841;44.526;11.360;2023-06-22T23:50:17;11.80;;;2.63;;
5638;SDS011;2841;44.526;11.360;2023-06-22T23:52:44;10.30;;;3.03;;
5638;SDS011;2841;44.526;11.360;2023-06-22T23:55:13;14.13;;;3.20;;
5638;SDS011;2841;44.526;11.360;2023-06-22T23:57:41;7.57;;;3.00;;
